createdAt,value
2022-11-09T00:01:32.336Z,100.00
2022-11-09T00:04:01.061Z,100.00
2022-11-09T00:06:29.137Z,100.00
2022-11-09T00:08:55.756Z,100.00
2022-11-09T00:11:22.446Z,100.00
2022-11-09T00:13:49.018Z,100.00
2022-11-09T00:16:17.040Z,100.00
2022-11-09T00:18:47.390Z,100.00
2022-11-09T00:21:19.192Z,100.00
2022-11-09T00:23:45.911Z,100.00
2022-11-09T00:26:14.748Z,100.00
2022-11-09T00:28:41.392Z,100.00
2022-11-09T00:31:11.070Z,100.00
2022-11-09T00:33:37.526Z,100.00
2022-11-09T00:36:09.710Z,100.00
2022-11-09T00:38:36.767Z,100.00
2022-11-09T00:41:04.903Z,100.00
2022-11-09T00:43:31.347Z,100.00
2022-11-09T00:45:57.835Z,100.00
2022-11-09T00:48:24.289Z,100.00
2022-11-09T00:50:55.396Z,100.00
2022-11-09T00:53:23.139Z,100.00
2022-11-09T00:56:02.661Z,100.00
2022-11-09T00:58:31.390Z,100.00
2022-11-09T01:00:59.230Z,100.00
2022-11-09T01:03:26.362Z,100.00
2022-11-09T01:05:53.125Z,100.00
2022-11-09T01:08:19.669Z,100.00
2022-11-09T01:10:48.092Z,100.00
2022-11-09T01:13:16.423Z,100.00
2022-11-09T01:15:44.992Z,100.00
2022-11-09T01:18:11.437Z,100.00
2022-11-09T01:20:42.488Z,100.00
2022-11-09T01:23:09.987Z,100.00
2022-11-09T01:25:36.766Z,100.00
2022-11-09T01:28:03.580Z,100.00
2022-11-09T01:30:33.455Z,100.00
2022-11-09T01:32:59.909Z,100.00
2022-11-09T01:35:26.344Z,100.00
2022-11-09T01:37:52.776Z,100.00
2022-11-09T01:40:19.259Z,100.00
2022-11-09T01:42:45.899Z,100.00
2022-11-09T01:45:18.152Z,100.00
2022-11-09T01:47:48.800Z,100.00
2022-11-09T01:50:19.244Z,100.00
2022-11-09T01:52:48.573Z,100.00
2022-11-09T01:55:20.406Z,100.00
2022-11-09T01:58:09.906Z,100.00
2022-11-09T02:00:38.979Z,100.00
2022-11-09T02:03:09.864Z,100.00
2022-11-09T02:05:37.697Z,100.00
2022-11-09T02:08:05.349Z,100.00
2022-11-09T02:10:44.864Z,100.00
2022-11-09T02:13:13.158Z,100.00
2022-11-09T02:15:44.429Z,100.00
2022-11-09T02:18:12.204Z,100.00
2022-11-09T02:20:50.407Z,100.00
2022-11-09T02:23:17.787Z,100.00
2022-11-09T02:25:51.613Z,100.00
2022-11-09T02:28:18.069Z,100.00
2022-11-09T02:30:46.823Z,100.00
2022-11-09T02:33:13.259Z,100.00
2022-11-09T02:35:39.660Z,100.00
2022-11-09T02:38:08.834Z,100.00
2022-11-09T02:40:37.861Z,100.00
2022-11-09T02:43:05.826Z,100.00
2022-11-09T02:45:32.319Z,100.00
2022-11-09T02:47:59.028Z,100.00
2022-11-09T02:50:26.374Z,100.00
2022-11-09T02:52:52.791Z,100.00
2022-11-09T02:55:19.215Z,100.00
2022-11-09T02:57:45.800Z,100.00
2022-11-09T03:00:12.901Z,100.00
2022-11-09T03:02:39.334Z,100.00
2022-11-09T03:05:06.398Z,100.00
2022-11-09T03:07:32.855Z,100.00
2022-11-09T03:09:59.365Z,100.00
2022-11-09T03:12:31.584Z,100.00
2022-11-09T03:15:03.937Z,100.00
2022-11-09T03:17:31.810Z,100.00
2022-11-09T03:19:58.248Z,100.00
2022-11-09T03:22:24.659Z,100.00
2022-11-09T03:24:51.158Z,100.00
2022-11-09T03:27:17.869Z,100.00
2022-11-09T03:29:44.428Z,100.00
2022-11-09T03:32:10.868Z,100.00
2022-11-09T03:34:37.298Z,100.00
2022-11-09T03:37:04.158Z,100.00
2022-11-09T03:39:30.639Z,100.00
2022-11-09T03:41:57.074Z,100.00
2022-11-09T03:44:23.563Z,100.00
2022-11-09T03:46:49.984Z,100.00
2022-11-09T03:49:16.457Z,100.00
2022-11-09T03:51:42.859Z,100.00
2022-11-09T03:54:09.371Z,100.00
2022-11-09T03:56:35.846Z,100.00
2022-11-09T03:59:02.282Z,100.00
2022-11-09T04:01:29.244Z,100.00
2022-11-09T04:03:55.728Z,100.00
2022-11-09T04:06:22.322Z,100.00
2022-11-09T04:08:51.505Z,100.00
2022-11-09T04:11:18.189Z,100.00
2022-11-09T04:13:44.741Z,100.00
2022-11-09T04:16:11.227Z,100.00
2022-11-09T04:18:37.861Z,100.00
2022-11-09T04:21:04.386Z,100.00
2022-11-09T04:23:30.895Z,100.00
2022-11-09T04:25:59.561Z,100.00
2022-11-09T04:28:26.488Z,100.00
2022-11-09T04:30:52.961Z,100.00
2022-11-09T04:33:19.927Z,100.00
2022-11-09T04:35:46.738Z,100.00
2022-11-09T04:38:14.099Z,100.00
2022-11-09T04:40:40.803Z,100.00
2022-11-09T04:43:09.518Z,100.00
2022-11-09T04:45:36.014Z,100.00
2022-11-09T04:48:05.554Z,100.00
2022-11-09T04:50:32.744Z,100.00
2022-11-09T04:53:13.408Z,100.00
2022-11-09T04:55:40.484Z,100.00
2022-11-09T04:58:07.288Z,100.00
2022-11-09T05:00:34.275Z,100.00
2022-11-09T05:03:05.053Z,100.00
2022-11-09T05:05:33.813Z,100.00
2022-11-09T05:08:00.230Z,100.00
2022-11-09T05:10:26.800Z,100.00
2022-11-09T05:13:04.445Z,100.00
2022-11-09T05:15:31.382Z,100.00
2022-11-09T05:17:58.135Z,100.00
2022-11-09T05:20:24.892Z,100.00
2022-11-09T05:23:10.040Z,100.00
2022-11-09T05:25:36.464Z,100.00
2022-11-09T05:28:03.085Z,100.00
2022-11-09T05:30:29.587Z,100.00
2022-11-09T05:32:55.997Z,100.00
2022-11-09T05:35:22.577Z,100.00
2022-11-09T05:37:49.807Z,100.00
2022-11-09T05:40:17.765Z,100.00
2022-11-09T05:42:44.679Z,100.00
2022-11-09T05:45:40.712Z,100.00
2022-11-09T05:48:03.544Z,100.00
2022-11-09T05:50:29.968Z,100.00
2022-11-09T05:52:59.143Z,100.00
2022-11-09T05:55:25.712Z,100.00
2022-11-09T05:57:52.204Z,100.00
2022-11-09T06:00:18.941Z,100.00
2022-11-09T06:02:45.548Z,100.00
2022-11-09T06:05:12.215Z,100.00
2022-11-09T06:07:38.767Z,100.00
2022-11-09T06:10:05.895Z,100.00
2022-11-09T06:12:32.362Z,100.00
2022-11-09T06:14:59.462Z,100.00
2022-11-09T06:17:26.243Z,100.00
2022-11-09T06:19:52.894Z,100.00
2022-11-09T06:22:19.560Z,100.00
2022-11-09T06:24:46.105Z,100.00
2022-11-09T06:27:12.656Z,100.00
2022-11-09T06:29:39.112Z,100.00
2022-11-09T06:32:05.759Z,100.00
2022-11-09T06:34:32.219Z,100.00
2022-11-09T06:36:59.036Z,100.00
2022-11-09T06:39:25.498Z,100.00
2022-11-09T06:41:51.928Z,100.00
2022-11-09T06:44:18.353Z,100.00
2022-11-09T06:46:44.766Z,100.00
2022-11-09T06:50:40.368Z,100.00
2022-11-09T06:53:09.626Z,100.00
2022-11-09T06:55:36.752Z,100.00
2022-11-09T06:58:11.488Z,100.00
2022-11-09T07:00:38.391Z,100.00
2022-11-09T07:03:04.815Z,100.00
2022-11-09T07:05:31.441Z,100.00
2022-11-09T07:07:58.243Z,100.00
2022-11-09T07:10:25.228Z,100.00
2022-11-09T07:12:51.803Z,100.00
2022-11-09T07:15:18.757Z,100.00
2022-11-09T07:17:45.256Z,100.00
2022-11-09T07:20:12.167Z,100.00
2022-11-09T07:22:39.892Z,100.00
2022-11-09T07:25:07.848Z,100.00
2022-11-09T07:27:34.380Z,100.00
2022-11-09T07:30:01.003Z,100.00
2022-11-09T07:33:02.043Z,100.00
2022-11-09T07:35:14.403Z,100.00
2022-11-09T07:37:40.822Z,100.00
2022-11-09T07:40:08.201Z,100.00
2022-11-09T07:42:34.762Z,100.00
2022-11-09T07:45:01.265Z,100.00
2022-11-09T07:47:27.914Z,100.00
2022-11-09T07:49:54.412Z,100.00
2022-11-09T07:52:20.854Z,100.00
2022-11-09T07:54:51.938Z,100.00
2022-11-09T07:57:18.842Z,100.00
2022-11-09T07:59:45.355Z,100.00
2022-11-09T08:02:12.848Z,100.00
2022-11-09T08:04:39.695Z,100.00
2022-11-09T08:07:06.293Z,100.00
2022-11-09T08:09:32.967Z,99.94
2022-11-09T08:12:02.168Z,99.28
2022-11-09T08:14:29.498Z,97.78
2022-11-09T08:16:56.745Z,95.16
2022-11-09T08:19:23.353Z,92.33
2022-11-09T08:21:50.140Z,89.99
2022-11-09T08:24:16.696Z,84.65
2022-11-09T08:26:43.408Z,83.75
2022-11-09T08:29:09.978Z,82.79
2022-11-09T08:31:36.906Z,82.51
2022-11-09T08:34:03.733Z,79.44
2022-11-09T08:36:31.429Z,74.70
2022-11-09T08:38:59.311Z,73.09
2022-11-09T08:41:25.930Z,71.30
2022-11-09T08:43:52.617Z,73.14
2022-11-09T08:46:19.356Z,73.07
2022-11-09T08:48:46.937Z,69.92
2022-11-09T08:51:13.564Z,72.30
2022-11-09T08:53:40.319Z,74.27
2022-11-09T08:56:08.264Z,74.18
2022-11-09T08:58:35.211Z,75.23
2022-11-09T09:01:01.963Z,77.20
2022-11-09T09:03:29.476Z,78.95
2022-11-09T09:05:56.118Z,77.35
2022-11-09T09:08:23.837Z,70.13
2022-11-09T09:10:50.715Z,67.44
2022-11-09T09:13:19.337Z,67.98
2022-11-09T09:15:48.478Z,69.04
2022-11-09T09:18:15.167Z,71.99
2022-11-09T09:20:41.699Z,74.63
2022-11-09T09:23:08.244Z,78.06
2022-11-09T09:25:34.985Z,79.60
2022-11-09T09:28:01.620Z,80.68
2022-11-09T09:30:29.370Z,82.00
2022-11-09T09:33:02.019Z,80.67
2022-11-09T09:35:29.817Z,79.73
2022-11-09T09:37:58.724Z,81.05
2022-11-09T09:40:35.355Z,82.01
2022-11-09T09:43:02.068Z,80.76
2022-11-09T09:45:32.832Z,81.49
2022-11-09T09:48:05.428Z,82.02
2022-11-09T09:50:38.221Z,83.27
2022-11-09T09:53:24.147Z,84.36
2022-11-09T09:55:56.307Z,84.44
2022-11-09T09:58:31.753Z,85.72
2022-11-09T10:01:15.480Z,85.14
2022-11-09T10:03:42.280Z,85.19
2022-11-09T10:06:15.063Z,85.13
2022-11-09T10:08:57.085Z,84.79
2022-11-09T10:11:46.393Z,85.81
2022-11-09T10:14:29.783Z,85.89
2022-11-09T10:17:14.800Z,85.44
2022-11-09T10:19:58.454Z,85.65
2022-11-09T10:22:49.901Z,85.13
2022-11-09T10:25:43.318Z,86.13
2022-11-09T10:28:15.363Z,86.55
2022-11-09T10:30:42.322Z,86.33
2022-11-09T10:33:11.395Z,86.14
2022-11-09T10:36:03.844Z,86.34
2022-11-09T10:38:38.736Z,86.87
2022-11-09T10:41:32.722Z,86.14
2022-11-09T10:43:59.777Z,84.74
2022-11-09T10:46:26.259Z,84.08
2022-11-09T10:48:54.288Z,84.07
2022-11-09T10:51:35.868Z,84.34
2022-11-09T10:54:28.335Z,82.99
2022-11-09T10:57:06.636Z,83.00
2022-11-09T10:59:39.952Z,83.52
2022-11-09T11:02:24.432Z,83.05
2022-11-09T11:05:16.586Z,83.57
2022-11-09T11:07:43.477Z,84.70
2022-11-09T11:10:15.832Z,84.46
2022-11-09T11:12:51.596Z,83.30
2022-11-09T11:15:32.569Z,83.84
2022-11-09T11:18:04.996Z,83.67
2022-11-09T11:20:35.935Z,83.84
2022-11-09T11:23:13.272Z,82.77
2022-11-09T11:25:59.264Z,82.80
2022-11-09T11:28:47.890Z,82.38
2022-11-09T11:31:16.385Z,81.53
2022-11-09T11:33:42.934Z,80.69
2022-11-09T11:36:20.837Z,80.67
2022-11-09T11:38:57.713Z,80.44
2022-11-09T11:41:24.366Z,80.96
2022-11-09T11:43:56.850Z,82.17
2022-11-09T11:46:37.424Z,81.69
2022-11-09T11:49:33.378Z,82.33
2022-11-09T11:52:10.741Z,82.27
2022-11-09T11:55:13.962Z,82.14
2022-11-09T11:57:49.116Z,81.58
2022-11-09T12:00:18.292Z,80.48
2022-11-09T12:03:05.956Z,80.28
2022-11-09T12:05:57.453Z,80.20
2022-11-09T12:08:29.367Z,79.25
2022-11-09T12:10:58.328Z,79.86
2022-11-09T12:13:49.671Z,79.62
2022-11-09T12:16:29.371Z,78.87
2022-11-09T12:19:14.369Z,79.25
2022-11-09T12:21:52.701Z,79.72
2022-11-09T12:24:35.628Z,79.08
2022-11-09T12:27:31.129Z,79.17
2022-11-09T12:30:06.391Z,79.28
2022-11-09T12:32:59.425Z,79.36
2022-11-09T12:35:42.290Z,79.33
2022-11-09T12:38:17.238Z,79.39
2022-11-09T12:40:59.035Z,78.64
2022-11-09T12:43:29.678Z,78.25
2022-11-09T12:45:57.581Z,78.02
2022-11-09T12:48:35.376Z,78.14
2022-11-09T12:51:04.015Z,78.78
2022-11-09T12:53:34.300Z,78.74
2022-11-09T12:56:10.107Z,78.98
2022-11-09T12:58:37.970Z,79.01
2022-11-09T13:01:06.571Z,79.01
2022-11-09T13:03:35.625Z,80.11
2022-11-09T13:06:27.884Z,80.84
2022-11-09T13:09:13.456Z,81.22
2022-11-09T13:11:42.456Z,81.85
2022-11-09T13:14:27.039Z,81.48
2022-11-09T13:17:01.957Z,81.84
2022-11-09T13:19:34.619Z,81.70
2022-11-09T13:22:16.089Z,82.13
2022-11-09T13:25:00.164Z,83.08
2022-11-09T13:27:32.622Z,83.69
2022-11-09T13:30:00.721Z,83.23
2022-11-09T13:32:29.506Z,83.76
2022-11-09T13:35:00.641Z,84.50
2022-11-09T13:37:36.081Z,84.79
2022-11-09T13:40:31.235Z,84.50
2022-11-09T13:43:16.447Z,84.52
2022-11-09T13:45:56.519Z,85.31
2022-11-09T13:48:39.531Z,84.82
2022-11-09T13:51:09.052Z,84.90
2022-11-09T13:53:38.626Z,84.66
2022-11-09T13:56:33.683Z,85.19
2022-11-09T13:59:09.980Z,84.89
2022-11-09T14:01:48.530Z,85.84
2022-11-09T14:04:25.947Z,85.29
2022-11-09T14:07:12.699Z,85.46
2022-11-09T14:09:58.544Z,86.67
2022-11-09T14:12:42.057Z,86.22
2022-11-09T14:15:30.863Z,86.02
2022-11-09T14:18:13.643Z,85.85
2022-11-09T14:20:58.542Z,86.52
2022-11-09T14:23:32.285Z,86.51
2022-11-09T14:26:06.886Z,86.62
2022-11-09T14:28:34.848Z,86.81
2022-11-09T14:31:02.176Z,86.44
2022-11-09T14:33:34.852Z,86.82
2022-11-09T14:36:02.970Z,86.67
2022-11-09T14:38:35.934Z,87.33
2022-11-09T14:41:03.454Z,87.86
2022-11-09T14:43:47.635Z,88.21
2022-11-09T14:46:20.864Z,88.49
2022-11-09T14:49:00.662Z,88.64
2022-11-09T14:51:38.696Z,88.84
2022-11-09T14:54:12.752Z,89.02
2022-11-09T14:56:40.106Z,89.32
2022-11-09T14:59:14.709Z,89.65
2022-11-09T15:01:41.538Z,89.61
2022-11-09T15:04:11.401Z,89.90
2022-11-09T15:06:46.624Z,90.25
2022-11-09T15:09:19.569Z,89.86
2022-11-09T15:11:46.537Z,89.99
2022-11-09T15:14:35.002Z,90.23
2022-11-09T15:17:15.480Z,90.66
2022-11-09T15:19:50.287Z,90.30
2022-11-09T15:22:49.547Z,90.44
2022-11-09T15:25:34.536Z,91.25
2022-11-09T15:28:12.792Z,91.14
2022-11-09T15:30:45.664Z,91.56
2022-11-09T15:33:21.342Z,92.00
2022-11-09T15:35:53.115Z,91.97
2022-11-09T15:38:39.390Z,91.95
2022-11-09T15:41:18.681Z,92.30
2022-11-09T15:43:45.613Z,92.67
2022-11-09T15:46:24.752Z,92.95
2022-11-09T15:48:51.842Z,92.83
2022-11-09T15:51:18.464Z,92.99
2022-11-09T15:53:45.126Z,92.68
2022-11-09T15:56:20.447Z,92.94
2022-11-09T15:58:49.100Z,92.68
2022-11-09T16:01:16.225Z,92.51
2022-11-09T16:03:42.817Z,92.97
2022-11-09T16:06:22.365Z,93.24
2022-11-09T16:08:50.029Z,93.41
2022-11-09T16:11:16.743Z,93.96
2022-11-09T16:13:43.414Z,93.93
2022-11-09T16:16:12.358Z,94.10
2022-11-09T16:18:38.939Z,93.20
2022-11-09T16:21:23.935Z,94.11
2022-11-09T16:23:55.655Z,94.27
2022-11-09T16:26:24.698Z,94.62
2022-11-09T16:28:51.340Z,95.13
2022-11-09T16:31:25.249Z,95.18
2022-11-09T16:34:01.643Z,95.40
2022-11-09T16:36:29.546Z,95.78
2022-11-09T16:38:56.794Z,95.50
2022-11-09T16:41:23.821Z,96.46
2022-11-09T16:43:55.531Z,95.71
2022-11-09T16:46:24.257Z,95.91
2022-11-09T16:48:50.988Z,96.57
2022-11-09T16:51:17.485Z,97.21
2022-11-09T16:53:44.347Z,97.28
2022-11-09T16:56:11.000Z,97.29
2022-11-09T16:58:37.507Z,97.76
2022-11-09T17:01:11.618Z,96.85
2022-11-09T17:03:39.098Z,97.34
2022-11-09T17:06:07.383Z,98.05
2022-11-09T17:08:33.839Z,98.25
2022-11-09T17:11:00.396Z,98.52
2022-11-09T17:13:26.941Z,97.87
2022-11-09T17:15:53.524Z,98.36
2022-11-09T17:18:20.437Z,98.62
2022-11-09T17:20:49.264Z,98.72
2022-11-09T17:23:18.805Z,99.27
2022-11-09T17:25:59.658Z,98.69
2022-11-09T17:28:26.750Z,99.30
2022-11-09T17:30:53.966Z,99.19
2022-11-09T17:33:20.744Z,99.08
2022-11-09T17:35:47.570Z,99.78
2022-11-09T17:38:14.118Z,99.22
2022-11-09T17:40:40.553Z,99.95
2022-11-09T17:43:07.122Z,99.77
2022-11-09T17:45:35.351Z,100.00
2022-11-09T17:48:01.816Z,100.00
2022-11-09T17:50:28.891Z,99.56
2022-11-09T17:52:55.319Z,100.00
2022-11-09T17:55:21.822Z,100.00
2022-11-09T17:57:48.648Z,100.00
2022-11-09T18:00:15.491Z,100.00
2022-11-09T18:02:42.393Z,100.00
2022-11-09T18:05:10.904Z,99.99
2022-11-09T18:07:37.376Z,100.00
2022-11-09T18:10:04.220Z,100.00
2022-11-09T18:12:30.725Z,100.00
2022-11-09T18:14:57.231Z,100.00
2022-11-09T18:17:23.778Z,100.00
2022-11-09T18:19:50.230Z,100.00
2022-11-09T18:22:16.729Z,100.00
2022-11-09T18:24:43.200Z,100.00
2022-11-09T18:27:09.681Z,100.00
2022-11-09T18:29:36.096Z,99.69
2022-11-09T18:32:02.525Z,100.00
2022-11-09T18:34:29.221Z,99.98
2022-11-09T18:36:55.710Z,99.98
2022-11-09T18:39:22.195Z,100.00
2022-11-09T18:41:48.750Z,100.00
2022-11-09T18:44:15.287Z,100.00
2022-11-09T18:46:41.771Z,100.00
2022-11-09T18:49:13.907Z,100.00
2022-11-09T18:51:40.846Z,100.00
2022-11-09T18:54:07.321Z,100.00
2022-11-09T18:56:34.072Z,100.00
2022-11-09T18:59:00.904Z,100.00
2022-11-09T19:01:27.611Z,100.00
2022-11-09T19:03:59.003Z,100.00
2022-11-09T19:06:26.551Z,100.00
2022-11-09T19:09:11.885Z,100.00
2022-11-09T19:11:38.449Z,100.00
2022-11-09T19:14:04.924Z,100.00
2022-11-09T19:16:31.419Z,100.00
2022-11-09T19:18:58.213Z,100.00
2022-11-09T19:21:24.703Z,100.00
2022-11-09T19:23:51.693Z,100.00
2022-11-09T19:26:18.390Z,100.00
2022-11-09T19:28:44.922Z,100.00
2022-11-09T19:31:13.569Z,100.00
2022-11-09T19:33:40.135Z,100.00
2022-11-09T19:36:29.095Z,100.00
2022-11-09T19:38:53.622Z,100.00
2022-11-09T19:41:20.384Z,100.00
2022-11-09T19:43:50.886Z,100.00
2022-11-09T19:46:17.774Z,100.00
2022-11-09T19:48:45.736Z,100.00
2022-11-09T19:51:13.005Z,100.00
2022-11-09T19:53:42.375Z,100.00
2022-11-09T19:56:09.636Z,100.00
2022-11-09T19:58:36.303Z,100.00
2022-11-09T20:01:04.586Z,100.00
2022-11-09T20:03:31.178Z,100.00
2022-11-09T20:05:57.939Z,100.00
2022-11-09T20:08:25.247Z,100.00
2022-11-09T20:10:52.447Z,100.00
2022-11-09T20:13:20.100Z,100.00
2022-11-09T20:15:46.726Z,100.00
2022-11-09T20:18:13.427Z,100.00
2022-11-09T20:20:40.007Z,100.00
2022-11-09T20:23:06.610Z,100.00
2022-11-09T20:25:33.156Z,100.00
2022-11-09T20:27:59.956Z,100.00
2022-11-09T20:30:26.572Z,100.00
2022-11-09T20:32:53.158Z,100.00
2022-11-09T20:35:19.884Z,100.00
2022-11-09T20:37:46.488Z,100.00
2022-11-09T20:40:13.254Z,100.00
2022-11-09T20:42:39.709Z,100.00
2022-11-09T20:45:06.444Z,100.00
2022-11-09T20:48:02.856Z,100.00
2022-11-09T20:50:20.214Z,100.00
2022-11-09T20:52:46.701Z,100.00
2022-11-09T20:55:13.763Z,100.00
2022-11-09T20:57:40.297Z,100.00
2022-11-09T21:00:07.748Z,100.00
2022-11-09T21:02:34.253Z,100.00
2022-11-09T21:05:01.242Z,100.00
2022-11-09T21:07:27.735Z,100.00
2022-11-09T21:09:54.245Z,100.00
2022-11-09T21:12:24.976Z,100.00
2022-11-09T21:14:52.971Z,100.00
2022-11-09T21:17:20.109Z,100.00
2022-11-09T21:19:46.851Z,100.00
2022-11-09T21:22:13.747Z,100.00
2022-11-09T21:24:58.932Z,100.00
2022-11-09T21:27:47.859Z,100.00
2022-11-09T21:30:15.107Z,100.00
2022-11-09T21:32:41.680Z,100.00
2022-11-09T21:35:08.621Z,100.00
2022-11-09T21:37:35.137Z,100.00
2022-11-09T21:40:01.671Z,100.00
2022-11-09T21:42:30.863Z,100.00
2022-11-09T21:44:57.495Z,100.00
2022-11-09T21:47:24.455Z,100.00
2022-11-09T21:49:50.963Z,100.00
2022-11-09T21:52:17.463Z,100.00
2022-11-09T21:54:43.934Z,100.00
2022-11-09T21:57:10.445Z,100.00
2022-11-09T21:59:36.991Z,100.00
2022-11-09T22:02:03.687Z,100.00
2022-11-09T22:04:30.099Z,100.00
2022-11-09T22:06:56.647Z,100.00
2022-11-09T22:09:23.311Z,100.00
2022-11-09T22:12:08.852Z,100.00
2022-11-09T22:14:54.220Z,100.00
2022-11-09T22:17:20.993Z,100.00
2022-11-09T22:20:06.270Z,100.00
2022-11-09T22:22:34.027Z,100.00
2022-11-09T22:25:00.471Z,100.00
2022-11-09T22:27:27.553Z,100.00
2022-11-09T22:29:54.030Z,100.00
2022-11-09T22:32:20.673Z,100.00
2022-11-09T22:34:47.220Z,100.00
2022-11-09T22:37:13.831Z,100.00
2022-11-09T22:39:45.862Z,100.00
2022-11-09T22:42:13.632Z,100.00
2022-11-09T22:44:40.091Z,100.00
2022-11-09T22:47:06.556Z,100.00
2022-11-09T22:49:34.199Z,100.00
2022-11-09T22:52:00.626Z,100.00
2022-11-09T22:54:27.919Z,100.00
2022-11-09T22:56:54.389Z,100.00
2022-11-09T22:59:20.862Z,100.00
2022-11-09T23:01:48.187Z,100.00
2022-11-09T23:04:14.666Z,100.00
2022-11-09T23:06:41.169Z,100.00
2022-11-09T23:09:07.968Z,100.00
2022-11-09T23:11:34.414Z,100.00
2022-11-09T23:14:00.918Z,100.00
2022-11-09T23:16:27.572Z,100.00
2022-11-09T23:18:54.757Z,100.00
2022-11-09T23:21:26.912Z,100.00
2022-11-09T23:23:55.267Z,100.00
2022-11-09T23:26:22.632Z,100.00
2022-11-09T23:28:49.366Z,100.00
2022-11-09T23:31:19.356Z,100.00
2022-11-09T23:33:48.129Z,100.00
2022-11-09T23:36:14.760Z,100.00
2022-11-09T23:38:41.320Z,100.00
2022-11-09T23:41:09.471Z,100.00
2022-11-09T23:43:36.663Z,100.00
2022-11-09T23:46:06.447Z,100.00
2022-11-09T23:48:33.141Z,100.00
2022-11-09T23:51:00.543Z,100.00
2022-11-09T23:53:29.025Z,100.00
2022-11-09T23:56:03.412Z,100.00
2022-11-09T23:58:30.376Z,100.00
